OMD977 ENGM-VIDP
Flight info
| Callsign | OMD977 |
|---|---|
| Flight time | N/A |
| Altitude | 37000 |
| Route | VIPPA DCT ESOSI DCT DETNA DCT MADAG DCT LASGI DCT KOLOB DCT AGODU DCT DEKUT DCT INDIG DCT BAREX DCT NAXAR DCT KELEL DCT BADOR DCT IXORI DCT ZULOC DCT RONBU DCT RIXEN UA17 YAVRU/N0486F390 UA4 ERZ UN161 INDUR DCT TUTAK N449 SULEL M747 BODKA P130 MAMED B449 DOLOS B475 NINOP A909 LEMOD N644 DI A466 ELKUX ELKUX7E |
| Aircraft | B789/H-SDE1E2E3FGHIJ2J3J4J5M1RWXY/LB1D1 |
Departure
| Time | N/A |
|---|---|
| Airport | Oslo-Gardermoen International Airport (ENGM) |
Arrival
| Time | 2026-05-07 21:36 |
|---|---|
| Airport | Indira Gandhi International Airport (VIDP) |
| Time | Latitude | Longitude | Altitude | Speed | Heading |
|---|---|---|---|---|---|
| 2026-05-07 20:45 | 31.50107 | 71.79273 | 40801 ft | 547 kts | 117° |
| 2026-05-07 20:46 | 31.46506 | 71.87101 | 40804 ft | 547 kts | 118° |
| 2026-05-07 20:46 | 31.42898 | 71.94929 | 40807 ft | 546 kts | 118° |
| 2026-05-07 20:47 | 31.39287 | 72.02748 | 40808 ft | 545 kts | 118° |
| 2026-05-07 20:47 | 31.35689 | 72.10521 | 40810 ft | 545 kts | 118° |
| 2026-05-07 20:48 | 31.32060 | 72.18344 | 40812 ft | 545 kts | 118° |
| 2026-05-07 20:48 | 31.28659 | 72.26194 | 40828 ft | 542 kts | 106° |
| 2026-05-07 20:48 | 31.27692 | 72.30460 | 40831 ft | 538 kts | 95° |
| 2026-05-07 20:49 | 31.27391 | 72.34746 | 40834 ft | 533 kts | 84° |
| 2026-05-07 20:49 | 31.28164 | 72.43288 | 40817 ft | 527 kts | 77° |
| 2026-05-07 20:50 | 31.29136 | 72.51762 | 40819 ft | 526 kts | 77° |
| 2026-05-07 20:50 | 31.30071 | 72.60245 | 40824 ft | 525 kts | 78° |
| 2026-05-07 20:51 | 31.31016 | 72.68705 | 40828 ft | 526 kts | 78° |
| 2026-05-07 20:51 | 31.31948 | 72.77186 | 40834 ft | 526 kts | 78° |
| 2026-05-07 20:52 | 31.32880 | 72.85684 | 40836 ft | 525 kts | 78° |
| 2026-05-07 20:52 | 31.33799 | 72.94132 | 40838 ft | 524 kts | 78° |
| 2026-05-07 20:53 | 31.34714 | 73.02581 | 40843 ft | 525 kts | 78° |
| 2026-05-07 20:53 | 31.35630 | 73.11093 | 40838 ft | 526 kts | 78° |
| 2026-05-07 20:54 | 31.36538 | 73.19589 | 40846 ft | 526 kts | 78° |
| 2026-05-07 20:54 | 31.37440 | 73.28083 | 40840 ft | 525 kts | 78° |
| 2026-05-07 20:55 | 31.38333 | 73.36542 | 40834 ft | 524 kts | 78° |
| 2026-05-07 20:55 | 31.39217 | 73.44967 | 40838 ft | 523 kts | 78° |
| 2026-05-07 20:56 | 31.40098 | 73.53422 | 40840 ft | 524 kts | 78° |
| 2026-05-07 20:56 | 31.40976 | 73.61905 | 40844 ft | 523 kts | 78° |
| 2026-05-07 20:57 | 31.41842 | 73.70326 | 40848 ft | 522 kts | 78° |
| 2026-05-07 20:57 | 31.42704 | 73.78769 | 40849 ft | 520 kts | 78° |
| 2026-05-07 20:58 | 31.43556 | 73.87199 | 40852 ft | 521 kts | 79° |
| 2026-05-07 20:58 | 31.44400 | 73.95591 | 40853 ft | 522 kts | 79° |
| 2026-05-07 20:59 | 31.44494 | 74.04140 | 40867 ft | 531 kts | 98° |
| 2026-05-07 20:59 | 31.42962 | 74.12593 | 40852 ft | 532 kts | 100° |
| 2026-05-07 21:00 | 31.41353 | 74.21076 | 40856 ft | 531 kts | 99° |
| 2026-05-07 21:00 | 31.39781 | 74.29501 | 40859 ft | 532 kts | 100° |
| 2026-05-07 21:01 | 31.38176 | 74.37952 | 40860 ft | 531 kts | 100° |
| 2026-05-07 21:01 | 31.36585 | 74.46373 | 40859 ft | 529 kts | 100° |
| 2026-05-07 21:02 | 31.34496 | 74.54590 | 40873 ft | 530 kts | 116° |
| 2026-05-07 21:02 | 31.32615 | 74.58258 | 40874 ft | 533 kts | 128° |
| 2026-05-07 21:02 | 31.30156 | 74.61510 | 40876 ft | 532 kts | 138° |
| 2026-05-07 21:03 | 31.24769 | 74.67459 | 40858 ft | 533 kts | 138° |
| 2026-05-07 21:03 | 31.19342 | 74.73394 | 40855 ft | 533 kts | 138° |
| 2026-05-07 21:04 | 31.13970 | 74.79300 | 40853 ft | 532 kts | 138° |
| 2026-05-07 21:04 | 31.08579 | 74.85189 | 40849 ft | 532 kts | 138° |
| 2026-05-07 21:05 | 31.03152 | 74.91126 | 40848 ft | 533 kts | 138° |
| 2026-05-07 21:05 | 30.97734 | 74.97032 | 40852 ft | 534 kts | 138° |
| 2026-05-07 21:06 | 30.92318 | 75.02933 | 40850 ft | 535 kts | 138° |
| 2026-05-07 21:06 | 30.86882 | 75.08842 | 40851 ft | 534 kts | 138° |
| 2026-05-07 21:07 | 30.81330 | 75.14512 | 40868 ft | 530 kts | 150° |
| 2026-05-07 21:07 | 30.78097 | 75.16583 | 40865 ft | 526 kts | 161° |
| 2026-05-07 21:07 | 30.74646 | 75.18001 | 40853 ft | 523 kts | 166° |
| 2026-05-07 21:08 | 30.67715 | 75.20557 | 40845 ft | 524 kts | 166° |
| 2026-05-07 21:08 | 30.60729 | 75.23135 | 40847 ft | 525 kts | 166° |
| 2026-05-07 21:09 | 30.53814 | 75.25685 | 40849 ft | 525 kts | 166° |
| 2026-05-07 21:09 | 30.46797 | 75.28264 | 40846 ft | 526 kts | 166° |
| 2026-05-07 21:10 | 30.39840 | 75.30823 | 40842 ft | 526 kts | 166° |
| 2026-05-07 21:10 | 30.32879 | 75.33374 | 40832 ft | 525 kts | 166° |
| 2026-05-07 21:11 | 30.25936 | 75.35919 | 40831 ft | 525 kts | 167° |
| 2026-05-07 21:11 | 30.15501 | 75.39733 | 40826 ft | 525 kts | 167° |
| 2026-05-07 21:12 | 30.08521 | 75.42280 | 40823 ft | 526 kts | 167° |
| 2026-05-07 21:12 | 30.01566 | 75.44815 | 40824 ft | 526 kts | 167° |
| 2026-05-07 21:13 | 29.94571 | 75.47360 | 40826 ft | 526 kts | 167° |
| 2026-05-07 21:13 | 29.87643 | 75.49987 | 39921 ft | 531 kts | 159° |
| 2026-05-07 21:14 | 29.84376 | 75.52041 | 39228 ft | 537 kts | 147° |
| 2026-05-07 21:14 | 29.81442 | 75.54762 | 38473 ft | 542 kts | 135° |
| 2026-05-07 21:14 | 29.78908 | 75.57960 | 37600 ft | 543 kts | 132° |
| 2026-05-07 21:14 | 29.76430 | 75.61189 | 36788 ft | 543 kts | 131° |
| 2026-05-07 21:15 | 29.73930 | 75.64450 | 35936 ft | 543 kts | 131° |
| 2026-05-07 21:15 | 29.71404 | 75.67722 | 35036 ft | 544 kts | 132° |
| 2026-05-07 21:15 | 29.68911 | 75.70942 | 34111 ft | 545 kts | 131° |
| 2026-05-07 21:15 | 29.66368 | 75.74234 | 33074 ft | 545 kts | 131° |
| 2026-05-07 21:16 | 29.63878 | 75.77461 | 32043 ft | 543 kts | 131° |
| 2026-05-07 21:16 | 29.61368 | 75.80707 | 30955 ft | 541 kts | 131° |
| 2026-05-07 21:16 | 29.58880 | 75.83915 | 29807 ft | 539 kts | 131° |
| 2026-05-07 21:16 | 29.56378 | 75.87144 | 28586 ft | 535 kts | 130° |
| 2026-05-07 21:17 | 29.53914 | 75.90323 | 27426 ft | 529 kts | 130° |
| 2026-05-07 21:17 | 29.51507 | 75.93426 | 26311 ft | 523 kts | 130° |
| 2026-05-07 21:17 | 29.49082 | 75.96547 | 25190 ft | 518 kts | 130° |
| 2026-05-07 21:17 | 29.46700 | 75.99609 | 24094 ft | 514 kts | 130° |
| 2026-05-07 21:18 | 29.44342 | 76.02642 | 22954 ft | 510 kts | 130° |
| 2026-05-07 21:18 | 29.41992 | 76.05661 | 21890 ft | 500 kts | 130° |
| 2026-05-07 21:18 | 29.39678 | 76.08631 | 20837 ft | 492 kts | 131° |
| 2026-05-07 21:18 | 29.37440 | 76.11501 | 19816 ft | 484 kts | 131° |
| 2026-05-07 21:19 | 29.35224 | 76.14342 | 19241 ft | 467 kts | 131° |
| 2026-05-07 21:19 | 29.33109 | 76.17048 | 19057 ft | 441 kts | 131° |
| 2026-05-07 21:19 | 29.31119 | 76.19595 | 18930 ft | 417 kts | 131° |
| 2026-05-07 21:19 | 29.29245 | 76.21992 | 18793 ft | 396 kts | 131° |
| 2026-05-07 21:20 | 29.27432 | 76.24311 | 18527 ft | 380 kts | 131° |
| 2026-05-07 21:20 | 29.25688 | 76.26540 | 17954 ft | 376 kts | 131° |
| 2026-05-07 21:20 | 29.23950 | 76.28761 | 17408 ft | 369 kts | 131° |
| 2026-05-07 21:20 | 29.22271 | 76.30904 | 16936 ft | 361 kts | 131° |
| 2026-05-07 21:21 | 29.20603 | 76.33031 | 16462 ft | 354 kts | 131° |
| 2026-05-07 21:21 | 29.18985 | 76.35095 | 16003 ft | 347 kts | 132° |
| 2026-05-07 21:21 | 29.17380 | 76.37140 | 15553 ft | 341 kts | 132° |
| 2026-05-07 21:21 | 29.15798 | 76.39155 | 15104 ft | 338 kts | 133° |
| 2026-05-07 21:22 | 29.14223 | 76.41160 | 14655 ft | 337 kts | 133° |
| 2026-05-07 21:22 | 29.12675 | 76.43129 | 14227 ft | 335 kts | 133° |
| 2026-05-07 21:22 | 29.11119 | 76.45108 | 13783 ft | 334 kts | 133° |
| 2026-05-07 21:22 | 29.09563 | 76.47085 | 13313 ft | 333 kts | 134° |
| 2026-05-07 21:23 | 29.08012 | 76.49055 | 12874 ft | 330 kts | 133° |
| 2026-05-07 21:23 | 29.06504 | 76.50970 | 12448 ft | 324 kts | 133° |
| 2026-05-07 21:23 | 29.05000 | 76.52881 | 12015 ft | 317 kts | 133° |
| 2026-05-07 21:23 | 29.03549 | 76.54721 | 11510 ft | 314 kts | 133° |
| 2026-05-07 21:24 | 29.02074 | 76.56589 | 10919 ft | 315 kts | 133° |
| 2026-05-07 21:24 | 29.00602 | 76.58454 | 10340 ft | 315 kts | 133° |
| 2026-05-07 21:24 | 28.99137 | 76.60312 | 9783 ft | 315 kts | 133° |
| 2026-05-07 21:24 | 28.97678 | 76.62160 | 9172 ft | 315 kts | 132° |
| 2026-05-07 21:25 | 28.96215 | 76.64011 | 8562 ft | 313 kts | 132° |
| 2026-05-07 21:25 | 28.94757 | 76.65856 | 8104 ft | 307 kts | 131° |
| 2026-05-07 21:25 | 28.93349 | 76.67637 | 7803 ft | 294 kts | 131° |
| 2026-05-07 21:25 | 28.92022 | 76.69314 | 7643 ft | 283 kts | 131° |
| 2026-05-07 21:26 | 28.90720 | 76.70959 | 7446 ft | 278 kts | 131° |
| 2026-05-07 21:26 | 28.89428 | 76.72592 | 7234 ft | 276 kts | 131° |
| 2026-05-07 21:26 | 28.88572 | 76.73673 | 7096 ft | 274 kts | 131° |
| 2026-05-07 21:26 | 28.86879 | 76.75809 | 6817 ft | 271 kts | 131° |
| 2026-05-07 21:27 | 28.86036 | 76.76873 | 6680 ft | 270 kts | 131° |
| 2026-05-07 21:27 | 28.84781 | 76.78455 | 6477 ft | 265 kts | 131° |
| 2026-05-07 21:27 | 28.83567 | 76.79985 | 6256 ft | 253 kts | 131° |
| 2026-05-07 21:27 | 28.82417 | 76.81428 | 6063 ft | 244 kts | 133° |
| 2026-05-07 21:28 | 28.81009 | 76.82478 | 5834 ft | 242 kts | 159° |
| 2026-05-07 21:28 | 28.79469 | 76.83211 | 5672 ft | 240 kts | 153° |
| 2026-05-07 21:28 | 28.77972 | 76.84055 | 5498 ft | 238 kts | 154° |
| 2026-05-07 21:28 | 28.76488 | 76.84850 | 5335 ft | 236 kts | 155° |
| 2026-05-07 21:29 | 28.74996 | 76.85617 | 5152 ft | 233 kts | 155° |
| 2026-05-07 21:29 | 28.73536 | 76.86370 | 4985 ft | 231 kts | 155° |
| 2026-05-07 21:29 | 28.72090 | 76.87122 | 4808 ft | 224 kts | 155° |
| 2026-05-07 21:29 | 28.70698 | 76.87846 | 4639 ft | 215 kts | 155° |
| 2026-05-07 21:30 | 28.69350 | 76.88542 | 4467 ft | 208 kts | 157° |
| 2026-05-07 21:30 | 28.67976 | 76.88757 | 4251 ft | 203 kts | 189° |
| 2026-05-07 21:30 | 28.66646 | 76.88203 | 4141 ft | 202 kts | 205° |
| 2026-05-07 21:30 | 28.65446 | 76.87508 | 4067 ft | 188 kts | 205° |
| 2026-05-07 21:31 | 28.64269 | 76.86828 | 4007 ft | 189 kts | 203° |
| 2026-05-07 21:31 | 28.63006 | 76.86651 | 3849 ft | 186 kts | 169° |
| 2026-05-07 21:31 | 28.61879 | 76.87326 | 3709 ft | 186 kts | 135° |
| 2026-05-07 21:31 | 28.61327 | 76.88660 | 3577 ft | 186 kts | 110° |
| 2026-05-07 21:32 | 28.60960 | 76.90076 | 3493 ft | 187 kts | 108° |
| 2026-05-07 21:32 | 28.60623 | 76.91494 | 3429 ft | 187 kts | 107° |
| 2026-05-07 21:32 | 28.60298 | 76.92911 | 3341 ft | 185 kts | 107° |
| 2026-05-07 21:32 | 28.59968 | 76.94350 | 3167 ft | 188 kts | 107° |
| 2026-05-07 21:33 | 28.59644 | 76.95768 | 2934 ft | 184 kts | 107° |
| 2026-05-07 21:33 | 28.59321 | 76.97167 | 2696 ft | 181 kts | 107° |
| 2026-05-07 21:33 | 28.59016 | 76.98513 | 2465 ft | 167 kts | 107° |
| 2026-05-07 21:33 | 28.58747 | 76.99697 | 2263 ft | 146 kts | 107° |
| 2026-05-07 21:34 | 28.58497 | 77.00776 | 2065 ft | 135 kts | 108° |
| 2026-05-07 21:34 | 28.58265 | 77.01773 | 1910 ft | 129 kts | 107° |
| 2026-05-07 21:34 | 28.58042 | 77.02757 | 1750 ft | 128 kts | 108° |
| 2026-05-07 21:34 | 28.57809 | 77.03752 | 1587 ft | 131 kts | 108° |
| 2026-05-07 21:35 | 28.57576 | 77.04755 | 1420 ft | 137 kts | 104° |
| 2026-05-07 21:35 | 28.57340 | 77.05824 | 1288 ft | 140 kts | 102° |
| 2026-05-07 21:35 | 28.57083 | 77.06905 | 1132 ft | 140 kts | 103° |
| 2026-05-07 21:35 | 28.56836 | 77.07972 | 911 ft | 138 kts | 101° |
| 2026-05-07 21:36 | 28.56608 | 77.08996 | 782 ft | 123 kts | 102° |
| 2026-05-07 21:36 | 28.56429 | 77.09768 | 780 ft | 65 kts | 104° |
| 2026-05-07 21:36 | 28.56346 | 77.10117 | 779 ft | 26 kts | 104° |
| 2026-05-07 21:36 | 28.56325 | 77.10165 | 779 ft | 1 kts | 157° |
| 2026-05-07 21:37 | 28.56313 | 77.10157 | 779 ft | 2 kts | 227° |
| 2026-05-07 21:37 | 28.56311 | 77.10122 | 779 ft | 9 kts | 275° |
| 2026-05-07 21:37 | 28.56317 | 77.10043 | 779 ft | 7 kts | 257° |
| 2026-05-07 21:37 | 28.56293 | 77.09980 | 779 ft | 10 kts | 253° |
| 2026-05-07 21:38 | 28.56271 | 77.09896 | 779 ft | 13 kts | 252° |
| 2026-05-07 21:38 | 28.56245 | 77.09788 | 779 ft | 16 kts | 260° |
| 2026-05-07 21:38 | 28.56253 | 77.09664 | 779 ft | 15 kts | 285° |
| 2026-05-07 21:38 | 28.56293 | 77.09525 | 779 ft | 22 kts | 286° |
| 2026-05-07 21:39 | 28.56336 | 77.09354 | 779 ft | 23 kts | 280° |
| 2026-05-07 21:39 | 28.56373 | 77.09171 | 779 ft | 22 kts | 279° |
| 2026-05-07 21:39 | 28.56328 | 77.09095 | 779 ft | 9 kts | 199° |
| 2026-05-07 21:39 | 28.56256 | 77.09075 | 779 ft | 12 kts | 193° |
| 2026-05-07 21:40 | 28.56166 | 77.09049 | 779 ft | 13 kts | 207° |
| 2026-05-07 21:40 | 28.56141 | 77.08980 | 779 ft | 9 kts | 272° |
| 2026-05-07 21:40 | 28.56159 | 77.08891 | 779 ft | 13 kts | 284° |
| 2026-05-07 21:40 | 28.56185 | 77.08778 | 779 ft | 16 kts | 285° |
| 2026-05-07 21:41 | 28.56218 | 77.08645 | 779 ft | 19 kts | 285° |
| 2026-05-07 21:41 | 28.56251 | 77.08497 | 779 ft | 15 kts | 283° |
| 2026-05-07 21:41 | 28.56292 | 77.08463 | 779 ft | 5 kts | 358° |
| 2026-05-07 21:41 | 28.56329 | 77.08470 | 779 ft | 7 kts | 12° |
| 2026-05-07 21:42 | 28.56349 | 77.08476 | 779 ft | 0 kts | 13° |